sensor_id;sensor_type;location;lat;lon;timestamp;temperature;humidity
10149;DHT22;5115;50.920;6.376;2023-05-07T00:01:39;15.70;99.90
10149;DHT22;5115;50.920;6.376;2023-05-07T00:04:05;15.70;99.90
10149;DHT22;5115;50.920;6.376;2023-05-07T00:06:32;15.70;99.90
10149;DHT22;5115;50.920;6.376;2023-05-07T00:08:59;15.80;99.90
10149;DHT22;5115;50.920;6.376;2023-05-07T00:11:25;15.80;99.90
10149;DHT22;5115;50.920;6.376;2023-05-07T00:13:51;15.80;99.90
10149;DHT22;5115;50.920;6.376;2023-05-07T00:16:17;15.80;99.90
10149;DHT22;5115;50.920;6.376;2023-05-07T00:18:42;15.90;99.90
10149;DHT22;5115;50.920;6.376;2023-05-07T00:21:08;15.90;99.90
10149;DHT22;5115;50.920;6.376;2023-05-07T00:23:33;16.00;99.90
10149;DHT22;5115;50.920;6.376;2023-05-07T00:25:59;16.10;99.90
10149;DHT22;5115;50.920;6.376;2023-05-07T00:28:24;16.10;99.90
10149;DHT22;5115;50.920;6.376;2023-05-07T00:30:50;16.30;99.90
10149;DHT22;5115;50.920;6.376;2023-05-07T00:33:15;16.20;99.90
10149;DHT22;5115;50.920;6.376;2023-05-07T00:35:42;16.20;99.90
10149;DHT22;5115;50.920;6.376;2023-05-07T00:38:07;16.30;99.90
10149;DHT22;5115;50.920;6.376;2023-05-07T00:40:33;16.30;99.90
10149;DHT22;5115;50.920;6.376;2023-05-07T00:42:59;16.30;99.90
10149;DHT22;5115;50.920;6.376;2023-05-07T00:45:28;16.30;99.90
10149;DHT22;5115;50.920;6.376;2023-05-07T00:47:56;16.40;99.90
10149;DHT22;5115;50.920;6.376;2023-05-07T00:50:23;16.50;99.90
10149;DHT22;5115;50.920;6.376;2023-05-07T00:52:49;16.50;99.90
10149;DHT22;5115;50.920;6.376;2023-05-07T00:55:15;16.60;99.90
10149;DHT22;5115;50.920;6.376;2023-05-07T00:57:41;16.60;99.90
10149;DHT22;5115;50.920;6.376;2023-05-07T01:00:08;16.60;99.90
10149;DHT22;5115;50.920;6.376;2023-05-07T01:02:35;16.70;99.90
10149;DHT22;5115;50.920;6.376;2023-05-07T01:05:02;16.70;99.90
10149;DHT22;5115;50.920;6.376;2023-05-07T01:07:30;16.70;99.90
10149;DHT22;5115;50.920;6.376;2023-05-07T01:09:56;16.70;99.90
10149;DHT22;5115;50.920;6.376;2023-05-07T01:12:23;16.70;99.90
10149;DHT22;5115;50.920;6.376;2023-05-07T01:14:49;16.70;99.90
10149;DHT22;5115;50.920;6.376;2023-05-07T01:17:16;16.70;99.90
10149;DHT22;5115;50.920;6.376;2023-05-07T01:19:41;16.60;99.90
10149;DHT22;5115;50.920;6.376;2023-05-07T01:22:09;16.60;99.90
10149;DHT22;5115;50.920;6.376;2023-05-07T01:24:36;16.60;99.90
10149;DHT22;5115;50.920;6.376;2023-05-07T01:27:02;16.60;99.90
10149;DHT22;5115;50.920;6.376;2023-05-07T01:29:28;16.60;99.90
10149;DHT22;5115;50.920;6.376;2023-05-07T01:31:56;16.60;99.90
10149;DHT22;5115;50.920;6.376;2023-05-07T01:34:22;16.60;99.90
10149;DHT22;5115;50.920;6.376;2023-05-07T01:36:49;16.50;99.90
10149;DHT22;5115;50.920;6.376;2023-05-07T01:39:15;16.40;99.90
10149;DHT22;5115;50.920;6.376;2023-05-07T01:41:42;16.40;99.90
10149;DHT22;5115;50.920;6.376;2023-05-07T01:44:08;16.40;99.90
10149;DHT22;5115;50.920;6.376;2023-05-07T01:46:35;16.40;99.90
10149;DHT22;5115;50.920;6.376;2023-05-07T01:49:01;16.40;99.90
10149;DHT22;5115;50.920;6.376;2023-05-07T01:51:26;16.30;99.90
10149;DHT22;5115;50.920;6.376;2023-05-07T01:53:53;16.30;99.90
10149;DHT22;5115;50.920;6.376;2023-05-07T01:56:19;16.30;99.90
10149;DHT22;5115;50.920;6.376;2023-05-07T01:58:45;16.30;99.90
10149;DHT22;5115;50.920;6.376;2023-05-07T02:01:14;16.20;99.90
10149;DHT22;5115;50.920;6.376;2023-05-07T02:03:39;16.10;99.90
10149;DHT22;5115;50.920;6.376;2023-05-07T02:06:05;16.00;99.90
10149;DHT22;5115;50.920;6.376;2023-05-07T02:08:31;16.00;99.90
10149;DHT22;5115;50.920;6.376;2023-05-07T02:10:56;16.00;99.90
10149;DHT22;5115;50.920;6.376;2023-05-07T02:13:22;16.00;99.90
10149;DHT22;5115;50.920;6.376;2023-05-07T02:15:49;15.90;99.90
10149;DHT22;5115;50.920;6.376;2023-05-07T02:18:16;15.90;99.90
10149;DHT22;5115;50.920;6.376;2023-05-07T02:20:42;15.80;99.90
10149;DHT22;5115;50.920;6.376;2023-05-07T02:23:08;15.80;99.90
10149;DHT22;5115;50.920;6.376;2023-05-07T02:25:33;15.60;99.90
10149;DHT22;5115;50.920;6.376;2023-05-07T02:27:59;15.60;99.90
10149;DHT22;5115;50.920;6.376;2023-05-07T02:30:25;15.60;99.90
10149;DHT22;5115;50.920;6.376;2023-05-07T02:32:51;15.50;99.90
10149;DHT22;5115;50.920;6.376;2023-05-07T02:35:16;15.60;99.90
10149;DHT22;5115;50.920;6.376;2023-05-07T02:37:42;15.60;99.90
10149;DHT22;5115;50.920;6.376;2023-05-07T02:40:08;15.70;99.90
10149;DHT22;5115;50.920;6.376;2023-05-07T02:42:34;15.70;99.90
10149;DHT22;5115;50.920;6.376;2023-05-07T02:44:59;15.70;99.90
10149;DHT22;5115;50.920;6.376;2023-05-07T02:47:25;15.70;99.90
10149;DHT22;5115;50.920;6.376;2023-05-07T02:49:54;15.60;99.90
10149;DHT22;5115;50.920;6.376;2023-05-07T02:52:20;15.50;99.90
10149;DHT22;5115;50.920;6.376;2023-05-07T02:54:45;15.50;99.90
10149;DHT22;5115;50.920;6.376;2023-05-07T02:57:11;15.40;99.90
10149;DHT22;5115;50.920;6.376;2023-05-07T02:59:36;15.40;99.90
10149;DHT22;5115;50.920;6.376;2023-05-07T03:02:02;15.40;99.90
10149;DHT22;5115;50.920;6.376;2023-05-07T03:04:27;15.40;99.90
10149;DHT22;5115;50.920;6.376;2023-05-07T03:06:53;15.30;99.90
10149;DHT22;5115;50.920;6.376;2023-05-07T03:09:18;15.30;99.90
10149;DHT22;5115;50.920;6.376;2023-05-07T03:11:44;15.30;99.90
10149;DHT22;5115;50.920;6.376;2023-05-07T03:14:10;15.30;99.90
10149;DHT22;5115;50.920;6.376;2023-05-07T03:16:35;15.30;99.90
10149;DHT22;5115;50.920;6.376;2023-05-07T03:19:01;15.40;99.90
10149;DHT22;5115;50.920;6.376;2023-05-07T03:21:27;15.40;99.90
10149;DHT22;5115;50.920;6.376;2023-05-07T03:23:52;15.50;99.90
10149;DHT22;5115;50.920;6.376;2023-05-07T03:26:18;15.50;99.90
10149;DHT22;5115;50.920;6.376;2023-05-07T03:28:44;15.40;99.90
10149;DHT22;5115;50.920;6.376;2023-05-07T03:31:09;15.50;99.90
10149;DHT22;5115;50.920;6.376;2023-05-07T03:33:35;15.50;99.90
10149;DHT22;5115;50.920;6.376;2023-05-07T03:36:01;15.60;99.90
10149;DHT22;5115;50.920;6.376;2023-05-07T03:38:26;15.40;99.90
10149;DHT22;5115;50.920;6.376;2023-05-07T03:40:52;15.50;99.90
10149;DHT22;5115;50.920;6.376;2023-05-07T03:43:17;15.30;99.90
10149;DHT22;5115;50.920;6.376;2023-05-07T03:45:43;15.30;99.90
10149;DHT22;5115;50.920;6.376;2023-05-07T03:48:08;15.30;99.90
10149;DHT22;5115;50.920;6.376;2023-05-07T03:50:34;15.40;99.90
10149;DHT22;5115;50.920;6.376;2023-05-07T03:52:59;15.40;99.90
10149;DHT22;5115;50.920;6.376;2023-05-07T03:55:25;15.40;99.90
10149;DHT22;5115;50.920;6.376;2023-05-07T03:57:51;15.40;99.90
10149;DHT22;5115;50.920;6.376;2023-05-07T04:00:16;15.40;99.90
10149;DHT22;5115;50.920;6.376;2023-05-07T04:02:42;15.40;99.90
10149;DHT22;5115;50.920;6.376;2023-05-07T04:05:07;15.50;99.90
10149;DHT22;5115;50.920;6.376;2023-05-07T04:07:33;15.50;99.90
10149;DHT22;5115;50.920;6.376;2023-05-07T04:09:59;15.50;99.90
10149;DHT22;5115;50.920;6.376;2023-05-07T04:12:24;15.50;99.90
10149;DHT22;5115;50.920;6.376;2023-05-07T04:14:50;15.50;99.90
10149;DHT22;5115;50.920;6.376;2023-05-07T04:17:15;15.50;99.90
10149;DHT22;5115;50.920;6.376;2023-05-07T04:19:41;15.50;99.90
10149;DHT22;5115;50.920;6.376;2023-05-07T04:22:11;15.50;99.90
10149;DHT22;5115;50.920;6.376;2023-05-07T04:24:37;15.50;99.90
10149;DHT22;5115;50.920;6.376;2023-05-07T04:27:02;15.60;99.90
10149;DHT22;5115;50.920;6.376;2023-05-07T04:29:28;15.60;99.90
10149;DHT22;5115;50.920;6.376;2023-05-07T04:31:53;15.60;99.90
10149;DHT22;5115;50.920;6.376;2023-05-07T04:34:21;15.60;99.90
10149;DHT22;5115;50.920;6.376;2023-05-07T04:36:47;15.60;99.90
10149;DHT22;5115;50.920;6.376;2023-05-07T04:39:13;15.60;99.90
10149;DHT22;5115;50.920;6.376;2023-05-07T04:41:38;15.70;99.90
10149;DHT22;5115;50.920;6.376;2023-05-07T04:44:04;15.70;99.90
10149;DHT22;5115;50.920;6.376;2023-05-07T04:46:31;15.70;99.90
10149;DHT22;5115;50.920;6.376;2023-05-07T04:48:56;15.80;99.90
10149;DHT22;5115;50.920;6.376;2023-05-07T04:51:22;16.30;99.90
10149;DHT22;5115;50.920;6.376;2023-05-07T04:53:49;15.90;99.90
10149;DHT22;5115;50.920;6.376;2023-05-07T04:56:14;15.80;99.90
10149;DHT22;5115;50.920;6.376;2023-05-07T04:58:40;15.80;99.90
10149;DHT22;5115;50.920;6.376;2023-05-07T05:01:05;15.80;99.90
10149;DHT22;5115;50.920;6.376;2023-05-07T05:03:31;15.80;99.90
10149;DHT22;5115;50.920;6.376;2023-05-07T05:05:57;15.90;99.90
10149;DHT22;5115;50.920;6.376;2023-05-07T05:08:24;15.90;99.90
10149;DHT22;5115;50.920;6.376;2023-05-07T05:10:50;15.90;99.90
10149;DHT22;5115;50.920;6.376;2023-05-07T05:13:16;15.90;99.90
10149;DHT22;5115;50.920;6.376;2023-05-07T05:15:41;15.90;99.90
10149;DHT22;5115;50.920;6.376;2023-05-07T05:18:07;15.90;99.90
10149;DHT22;5115;50.920;6.376;2023-05-07T05:20:32;16.00;99.90
10149;DHT22;5115;50.920;6.376;2023-05-07T05:22:58;16.00;99.90
10149;DHT22;5115;50.920;6.376;2023-05-07T05:25:24;16.00;99.90
10149;DHT22;5115;50.920;6.376;2023-05-07T05:27:49;16.00;99.90
10149;DHT22;5115;50.920;6.376;2023-05-07T05:30:15;16.00;99.90
10149;DHT22;5115;50.920;6.376;2023-05-07T05:32:40;16.10;99.90
10149;DHT22;5115;50.920;6.376;2023-05-07T05:35:06;16.20;99.90
10149;DHT22;5115;50.920;6.376;2023-05-07T05:37:32;16.30;99.90
10149;DHT22;5115;50.920;6.376;2023-05-07T05:39:57;16.40;99.90
10149;DHT22;5115;50.920;6.376;2023-05-07T05:42:23;16.50;99.90
10149;DHT22;5115;50.920;6.376;2023-05-07T05:44:49;16.50;99.90
10149;DHT22;5115;50.920;6.376;2023-05-07T05:47:14;16.60;99.90
10149;DHT22;5115;50.920;6.376;2023-05-07T05:49:40;16.70;99.90
10149;DHT22;5115;50.920;6.376;2023-05-07T05:52:05;16.80;99.90
10149;DHT22;5115;50.920;6.376;2023-05-07T05:54:31;16.90;99.90
10149;DHT22;5115;50.920;6.376;2023-05-07T05:56:56;17.00;99.90
10149;DHT22;5115;50.920;6.376;2023-05-07T05:59:22;17.00;99.90
10149;DHT22;5115;50.920;6.376;2023-05-07T06:01:48;17.00;99.90
10149;DHT22;5115;50.920;6.376;2023-05-07T06:04:14;17.00;99.90
10149;DHT22;5115;50.920;6.376;2023-05-07T06:06:39;17.20;99.90
10149;DHT22;5115;50.920;6.376;2023-05-07T06:09:05;17.00;99.90
10149;DHT22;5115;50.920;6.376;2023-05-07T06:11:31;17.20;99.90
10149;DHT22;5115;50.920;6.376;2023-05-07T06:13:57;17.30;99.90
10149;DHT22;5115;50.920;6.376;2023-05-07T06:16:22;17.20;99.90
10149;DHT22;5115;50.920;6.376;2023-05-07T06:18:48;17.20;99.90
10149;DHT22;5115;50.920;6.376;2023-05-07T06:21:14;17.20;99.90
10149;DHT22;5115;50.920;6.376;2023-05-07T06:23:40;17.20;99.90
10149;DHT22;5115;50.920;6.376;2023-05-07T06:26:06;17.40;99.90
10149;DHT22;5115;50.920;6.376;2023-05-07T06:28:32;17.40;99.90
10149;DHT22;5115;50.920;6.376;2023-05-07T06:31:18;17.70;99.90
10149;DHT22;5115;50.920;6.376;2023-05-07T06:33:46;17.90;99.90
10149;DHT22;5115;50.920;6.376;2023-05-07T06:36:12;18.10;99.90
10149;DHT22;5115;50.920;6.376;2023-05-07T06:38:37;18.20;99.90
10149;DHT22;5115;50.920;6.376;2023-05-07T06:41:03;18.40;99.90
10149;DHT22;5115;50.920;6.376;2023-05-07T06:43:28;18.50;99.90
10149;DHT22;5115;50.920;6.376;2023-05-07T06:45:54;18.70;99.90
10149;DHT22;5115;50.920;6.376;2023-05-07T06:48:19;18.70;99.90
10149;DHT22;5115;50.920;6.376;2023-05-07T06:50:45;18.70;99.90
10149;DHT22;5115;50.920;6.376;2023-05-07T06:53:11;18.80;99.90
10149;DHT22;5115;50.920;6.376;2023-05-07T06:55:36;18.90;99.90
10149;DHT22;5115;50.920;6.376;2023-05-07T06:58:03;19.00;99.90
10149;DHT22;5115;50.920;6.376;2023-05-07T07:00:29;18.90;99.90
10149;DHT22;5115;50.920;6.376;2023-05-07T07:02:56;18.90;99.90
10149;DHT22;5115;50.920;6.376;2023-05-07T07:05:21;19.00;99.90
10149;DHT22;5115;50.920;6.376;2023-05-07T07:07:47;18.80;99.90
10149;DHT22;5115;50.920;6.376;2023-05-07T07:10:21;18.90;99.90
10149;DHT22;5115;50.920;6.376;2023-05-07T07:12:48;18.90;99.90
10149;DHT22;5115;50.920;6.376;2023-05-07T07:15:14;18.80;99.90
10149;DHT22;5115;50.920;6.376;2023-05-07T07:17:39;18.60;99.90
10149;DHT22;5115;50.920;6.376;2023-05-07T07:20:05;18.70;99.90
10149;DHT22;5115;50.920;6.376;2023-05-07T07:22:31;18.80;99.90
10149;DHT22;5115;50.920;6.376;2023-05-07T07:24:57;18.80;99.90
10149;DHT22;5115;50.920;6.376;2023-05-07T07:27:22;18.80;99.90
10149;DHT22;5115;50.920;6.376;2023-05-07T07:29:48;18.80;99.90
10149;DHT22;5115;50.920;6.376;2023-05-07T07:32:14;19.00;99.90
10149;DHT22;5115;50.920;6.376;2023-05-07T07:34:39;19.30;99.90
10149;DHT22;5115;50.920;6.376;2023-05-07T07:37:05;19.60;99.90
10149;DHT22;5115;50.920;6.376;2023-05-07T07:39:34;20.00;99.90
10149;DHT22;5115;50.920;6.376;2023-05-07T07:42:00;20.50;99.90
10149;DHT22;5115;50.920;6.376;2023-05-07T07:44:27;20.60;99.90
10149;DHT22;5115;50.920;6.376;2023-05-07T07:46:52;20.90;99.90
10149;DHT22;5115;50.920;6.376;2023-05-07T07:49:18;21.10;99.90
10149;DHT22;5115;50.920;6.376;2023-05-07T07:51:43;21.20;99.90
10149;DHT22;5115;50.920;6.376;2023-05-07T07:54:09;21.10;99.90
10149;DHT22;5115;50.920;6.376;2023-05-07T07:56:35;21.00;99.90
10149;DHT22;5115;50.920;6.376;2023-05-07T07:59:00;21.00;99.90
10149;DHT22;5115;50.920;6.376;2023-05-07T08:01:27;20.90;99.90
10149;DHT22;5115;50.920;6.376;2023-05-07T08:03:52;20.70;99.90
10149;DHT22;5115;50.920;6.376;2023-05-07T08:06:18;20.60;99.90
10149;DHT22;5115;50.920;6.376;2023-05-07T08:08:44;20.60;99.90
10149;DHT22;5115;50.920;6.376;2023-05-07T08:11:10;20.40;99.90
10149;DHT22;5115;50.920;6.376;2023-05-07T08:13:36;20.50;99.90
10149;DHT22;5115;50.920;6.376;2023-05-07T08:16:05;20.40;99.90
10149;DHT22;5115;50.920;6.376;2023-05-07T08:18:30;20.30;99.90
10149;DHT22;5115;50.920;6.376;2023-05-07T08:20:56;20.30;99.90
10149;DHT22;5115;50.920;6.376;2023-05-07T08:23:22;20.60;99.90
10149;DHT22;5115;50.920;6.376;2023-05-07T08:25:48;20.80;99.90
10149;DHT22;5115;50.920;6.376;2023-05-07T08:28:14;20.80;99.90
10149;DHT22;5115;50.920;6.376;2023-05-07T08:30:40;20.90;99.90
10149;DHT22;5115;50.920;6.376;2023-05-07T08:33:05;21.00;99.90
10149;DHT22;5115;50.920;6.376;2023-05-07T08:35:31;21.00;99.90
10149;DHT22;5115;50.920;6.376;2023-05-07T08:37:57;21.00;99.90
10149;DHT22;5115;50.920;6.376;2023-05-07T08:40:25;21.20;99.90
10149;DHT22;5115;50.920;6.376;2023-05-07T08:42:53;21.40;99.90
10149;DHT22;5115;50.920;6.376;2023-05-07T08:45:19;21.70;99.90
10149;DHT22;5115;50.920;6.376;2023-05-07T08:47:47;22.00;99.90
10149;DHT22;5115;50.920;6.376;2023-05-07T08:50:15;22.20;99.90
10149;DHT22;5115;50.920;6.376;2023-05-07T08:52:41;22.40;99.90
10149;DHT22;5115;50.920;6.376;2023-05-07T08:55:07;22.60;99.90
10149;DHT22;5115;50.920;6.376;2023-05-07T08:57:34;22.50;99.90
10149;DHT22;5115;50.920;6.376;2023-05-07T09:00:00;22.30;99.90
10149;DHT22;5115;50.920;6.376;2023-05-07T09:02:25;22.10;99.90
10149;DHT22;5115;50.920;6.376;2023-05-07T09:04:51;21.40;99.90
10149;DHT22;5115;50.920;6.376;2023-05-07T09:07:21;22.20;99.90
10149;DHT22;5115;50.920;6.376;2023-05-07T09:09:47;22.20;99.90
10149;DHT22;5115;50.920;6.376;2023-05-07T09:12:13;23.00;99.90
10149;DHT22;5115;50.920;6.376;2023-05-07T09:14:38;23.20;99.90
10149;DHT22;5115;50.920;6.376;2023-05-07T09:17:04;24.70;99.90
10149;DHT22;5115;50.920;6.376;2023-05-07T09:19:30;24.80;99.90
10149;DHT22;5115;50.920;6.376;2023-05-07T09:22:00;25.40;99.90
10149;DHT22;5115;50.920;6.376;2023-05-07T09:24:26;25.10;99.90
10149;DHT22;5115;50.920;6.376;2023-05-07T09:26:53;25.30;99.90
10149;DHT22;5115;50.920;6.376;2023-05-07T09:29:20;25.30;99.90
10149;DHT22;5115;50.920;6.376;2023-05-07T09:31:46;25.30;99.90
10149;DHT22;5115;50.920;6.376;2023-05-07T09:34:12;25.60;99.90
10149;DHT22;5115;50.920;6.376;2023-05-07T09:36:37;25.90;99.90
10149;DHT22;5115;50.920;6.376;2023-05-07T09:39:03;26.40;99.90
10149;DHT22;5115;50.920;6.376;2023-05-07T09:41:30;26.70;99.90
10149;DHT22;5115;50.920;6.376;2023-05-07T09:43:56;27.00;99.90
10149;DHT22;5115;50.920;6.376;2023-05-07T09:46:30;27.40;99.90
10149;DHT22;5115;50.920;6.376;2023-05-07T09:48:57;27.60;99.90
10149;DHT22;5115;50.920;6.376;2023-05-07T09:51:39;27.60;99.90
10149;DHT22;5115;50.920;6.376;2023-05-07T09:54:07;27.90;99.90
10149;DHT22;5115;50.920;6.376;2023-05-07T09:56:33;27.60;99.90
10149;DHT22;5115;50.920;6.376;2023-05-07T09:59:00;27.90;99.90
10149;DHT22;5115;50.920;6.376;2023-05-07T10:01:26;28.40;99.90
10149;DHT22;5115;50.920;6.376;2023-05-07T10:03:52;28.50;99.90
10149;DHT22;5115;50.920;6.376;2023-05-07T10:06:20;28.40;99.90
10149;DHT22;5115;50.920;6.376;2023-05-07T10:08:46;27.80;99.90
10149;DHT22;5115;50.920;6.376;2023-05-07T10:11:12;27.70;99.90
10149;DHT22;5115;50.920;6.376;2023-05-07T10:13:40;27.80;99.90
10149;DHT22;5115;50.920;6.376;2023-05-07T10:16:06;28.50;99.90
10149;DHT22;5115;50.920;6.376;2023-05-07T10:18:33;28.30;99.90
10149;DHT22;5115;50.920;6.376;2023-05-07T10:21:12;27.90;99.90
10149;DHT22;5115;50.920;6.376;2023-05-07T10:23:40;27.50;99.90
10149;DHT22;5115;50.920;6.376;2023-05-07T10:26:08;27.50;99.90
10149;DHT22;5115;50.920;6.376;2023-05-07T10:28:38;27.40;99.90
10149;DHT22;5115;50.920;6.376;2023-05-07T10:34:23;26.60;99.90
10149;DHT22;5115;50.920;6.376;2023-05-07T10:36:50;26.00;99.90
10149;DHT22;5115;50.920;6.376;2023-05-07T10:39:17;26.00;99.90
10149;DHT22;5115;50.920;6.376;2023-05-07T10:41:42;25.70;99.90
10149;DHT22;5115;50.920;6.376;2023-05-07T10:44:08;25.80;99.90
10149;DHT22;5115;50.920;6.376;2023-05-07T10:46:34;25.80;99.90
10149;DHT22;5115;50.920;6.376;2023-05-07T10:51:26;25.30;99.90
10149;DHT22;5115;50.920;6.376;2023-05-07T10:54:18;25.30;99.90
10149;DHT22;5115;50.920;6.376;2023-05-07T10:56:44;25.20;99.90
10149;DHT22;5115;50.920;6.376;2023-05-07T11:04:28;24.60;99.90
10149;DHT22;5115;50.920;6.376;2023-05-07T11:15:07;24.20;99.90
10149;DHT22;5115;50.920;6.376;2023-05-07T11:17:33;23.90;99.90
10149;DHT22;5115;50.920;6.376;2023-05-07T11:20:02;23.90;99.90
10149;DHT22;5115;50.920;6.376;2023-05-07T11:25:00;24.20;99.90
10149;DHT22;5115;50.920;6.376;2023-05-07T11:27:26;24.40;99.90
10149;DHT22;5115;50.920;6.376;2023-05-07T11:29:52;24.30;99.90
10149;DHT22;5115;50.920;6.376;2023-05-07T11:32:28;24.40;99.90
10149;DHT22;5115;50.920;6.376;2023-05-07T11:34:54;24.60;99.90
10149;DHT22;5115;50.920;6.376;2023-05-07T11:37:21;24.70;99.90
10149;DHT22;5115;50.920;6.376;2023-05-07T11:39:47;24.80;99.90
10149;DHT22;5115;50.920;6.376;2023-05-07T11:42:33;24.90;99.90
10149;DHT22;5115;50.920;6.376;2023-05-07T11:44:59;24.60;99.90
10149;DHT22;5115;50.920;6.376;2023-05-07T11:47:25;24.50;99.90
10149;DHT22;5115;50.920;6.376;2023-05-07T11:49:52;24.70;99.90
10149;DHT22;5115;50.920;6.376;2023-05-07T11:52:20;24.70;99.90
10149;DHT22;5115;50.920;6.376;2023-05-07T11:54:50;24.40;99.90
10149;DHT22;5115;50.920;6.376;2023-05-07T11:57:16;24.40;99.90
10149;DHT22;5115;50.920;6.376;2023-05-07T11:59:41;24.30;99.90
10149;DHT22;5115;50.920;6.376;2023-05-07T12:02:09;24.20;99.90
10149;DHT22;5115;50.920;6.376;2023-05-07T12:04:35;24.00;99.90
10149;DHT22;5115;50.920;6.376;2023-05-07T12:07:01;24.10;99.90
10149;DHT22;5115;50.920;6.376;2023-05-07T12:09:26;24.10;99.90
10149;DHT22;5115;50.920;6.376;2023-05-07T12:11:52;23.90;99.90
10149;DHT22;5115;50.920;6.376;2023-05-07T12:14:18;23.80;99.90
10149;DHT22;5115;50.920;6.376;2023-05-07T12:16:44;23.80;99.90
10149;DHT22;5115;50.920;6.376;2023-05-07T12:19:10;23.60;99.90
10149;DHT22;5115;50.920;6.376;2023-05-07T12:21:38;23.60;99.90
10149;DHT22;5115;50.920;6.376;2023-05-07T12:24:05;23.60;99.90
10149;DHT22;5115;50.920;6.376;2023-05-07T12:26:30;23.60;99.90
10149;DHT22;5115;50.920;6.376;2023-05-07T12:28:57;23.40;99.90
10149;DHT22;5115;50.920;6.376;2023-05-07T12:31:25;23.40;99.90
10149;DHT22;5115;50.920;6.376;2023-05-07T12:33:51;23.10;99.90
10149;DHT22;5115;50.920;6.376;2023-05-07T12:36:16;22.80;99.90
10149;DHT22;5115;50.920;6.376;2023-05-07T12:38:42;22.80;99.90
10149;DHT22;5115;50.920;6.376;2023-05-07T12:41:09;22.80;99.90
10149;DHT22;5115;50.920;6.376;2023-05-07T12:43:36;22.70;99.90
10149;DHT22;5115;50.920;6.376;2023-05-07T12:46:04;22.60;99.90
10149;DHT22;5115;50.920;6.376;2023-05-07T12:48:30;22.40;99.90
10149;DHT22;5115;50.920;6.376;2023-05-07T12:50:58;22.20;99.90
10149;DHT22;5115;50.920;6.376;2023-05-07T12:53:25;22.20;99.90
10149;DHT22;5115;50.920;6.376;2023-05-07T12:55:56;22.10;99.90
10149;DHT22;5115;50.920;6.376;2023-05-07T12:58:28;22.10;99.90
10149;DHT22;5115;50.920;6.376;2023-05-07T13:00:55;22.00;99.90
10149;DHT22;5115;50.920;6.376;2023-05-07T13:03:37;21.90;99.90
10149;DHT22;5115;50.920;6.376;2023-05-07T13:06:06;21.90;99.90
10149;DHT22;5115;50.920;6.376;2023-05-07T13:08:34;21.80;99.90
10149;DHT22;5115;50.920;6.376;2023-05-07T13:11:02;21.70;99.90
10149;DHT22;5115;50.920;6.376;2023-05-07T13:13:30;21.70;99.90
10149;DHT22;5115;50.920;6.376;2023-05-07T13:15:55;21.50;99.90
10149;DHT22;5115;50.920;6.376;2023-05-07T13:18:21;21.40;99.90
10149;DHT22;5115;50.920;6.376;2023-05-07T13:20:47;21.50;99.90
10149;DHT22;5115;50.920;6.376;2023-05-07T13:23:12;21.10;99.90
10149;DHT22;5115;50.920;6.376;2023-05-07T13:25:38;21.20;99.90
10149;DHT22;5115;50.920;6.376;2023-05-07T13:28:04;21.10;99.90
10149;DHT22;5115;50.920;6.376;2023-05-07T13:30:30;21.20;99.90
10149;DHT22;5115;50.920;6.376;2023-05-07T13:32:55;21.20;99.90
10149;DHT22;5115;50.920;6.376;2023-05-07T13:35:21;21.50;99.90
10149;DHT22;5115;50.920;6.376;2023-05-07T13:37:47;21.70;99.90
10149;DHT22;5115;50.920;6.376;2023-05-07T13:40:14;21.80;99.90
10149;DHT22;5115;50.920;6.376;2023-05-07T13:42:40;21.90;99.90
10149;DHT22;5115;50.920;6.376;2023-05-07T13:45:07;22.00;99.90
10149;DHT22;5115;50.920;6.376;2023-05-07T13:47:32;22.00;99.90
10149;DHT22;5115;50.920;6.376;2023-05-07T13:49:58;22.10;99.90
10149;DHT22;5115;50.920;6.376;2023-05-07T13:52:23;22.10;99.90
10149;DHT22;5115;50.920;6.376;2023-05-07T13:54:49;22.10;99.90
10149;DHT22;5115;50.920;6.376;2023-05-07T13:57:15;22.10;99.90
10149;DHT22;5115;50.920;6.376;2023-05-07T13:59:41;22.00;99.90
10149;DHT22;5115;50.920;6.376;2023-05-07T14:02:06;22.10;99.90
10149;DHT22;5115;50.920;6.376;2023-05-07T14:04:32;22.10;99.90
10149;DHT22;5115;50.920;6.376;2023-05-07T14:06:57;22.10;99.90
10149;DHT22;5115;50.920;6.376;2023-05-07T14:09:23;22.00;99.90
10149;DHT22;5115;50.920;6.376;2023-05-07T14:11:48;21.90;99.90
10149;DHT22;5115;50.920;6.376;2023-05-07T14:14:17;22.00;99.90
10149;DHT22;5115;50.920;6.376;2023-05-07T14:16:42;21.50;99.90
10149;DHT22;5115;50.920;6.376;2023-05-07T14:19:08;22.00;99.90
10149;DHT22;5115;50.920;6.376;2023-05-07T14:21:33;22.10;99.90
10149;DHT22;5115;50.920;6.376;2023-05-07T14:23:59;21.90;99.90
10149;DHT22;5115;50.920;6.376;2023-05-07T14:26:25;21.90;99.90
10149;DHT22;5115;50.920;6.376;2023-05-07T14:28:52;22.00;99.90
10149;DHT22;5115;50.920;6.376;2023-05-07T14:31:20;22.10;99.90
10149;DHT22;5115;50.920;6.376;2023-05-07T14:33:46;22.30;99.90
10149;DHT22;5115;50.920;6.376;2023-05-07T14:36:11;22.20;99.90
10149;DHT22;5115;50.920;6.376;2023-05-07T14:38:37;22.40;99.90
10149;DHT22;5115;50.920;6.376;2023-05-07T14:41:02;22.40;99.90
10149;DHT22;5115;50.920;6.376;2023-05-07T14:43:28;22.60;99.90
10149;DHT22;5115;50.920;6.376;2023-05-07T14:45:53;22.60;99.90
10149;DHT22;5115;50.920;6.376;2023-05-07T14:48:19;22.50;99.90
10149;DHT22;5115;50.920;6.376;2023-05-07T14:50:47;22.50;99.90
10149;DHT22;5115;50.920;6.376;2023-05-07T14:53:12;22.50;99.90
10149;DHT22;5115;50.920;6.376;2023-05-07T14:55:38;22.50;99.90
10149;DHT22;5115;50.920;6.376;2023-05-07T14:58:04;22.50;99.90
10149;DHT22;5115;50.920;6.376;2023-05-07T15:00:29;22.60;99.90
10149;DHT22;5115;50.920;6.376;2023-05-07T15:03:07;22.60;99.90
10149;DHT22;5115;50.920;6.376;2023-05-07T15:05:33;22.50;99.90
10149;DHT22;5115;50.920;6.376;2023-05-07T15:07:59;22.40;99.90
10149;DHT22;5115;50.920;6.376;2023-05-07T15:10:24;22.40;99.90
10149;DHT22;5115;50.920;6.376;2023-05-07T15:12:50;22.40;99.90
10149;DHT22;5115;50.920;6.376;2023-05-07T15:15:16;22.40;99.90
10149;DHT22;5115;50.920;6.376;2023-05-07T15:17:41;22.40;99.90
10149;DHT22;5115;50.920;6.376;2023-05-07T15:20:07;22.40;99.90
10149;DHT22;5115;50.920;6.376;2023-05-07T15:22:33;22.30;99.90
10149;DHT22;5115;50.920;6.376;2023-05-07T15:24:59;22.30;99.90
10149;DHT22;5115;50.920;6.376;2023-05-07T15:27:25;22.30;99.90
10149;DHT22;5115;50.920;6.376;2023-05-07T15:29:50;22.20;99.90
10149;DHT22;5115;50.920;6.376;2023-05-07T15:32:16;22.00;99.90
10149;DHT22;5115;50.920;6.376;2023-05-07T15:34:42;22.00;99.90
10149;DHT22;5115;50.920;6.376;2023-05-07T15:37:07;21.80;99.90
10149;DHT22;5115;50.920;6.376;2023-05-07T15:39:33;21.70;99.90
10149;DHT22;5115;50.920;6.376;2023-05-07T15:41:58;21.70;99.90
10149;DHT22;5115;50.920;6.376;2023-05-07T15:44:27;21.70;99.90
10149;DHT22;5115;50.920;6.376;2023-05-07T15:46:54;21.70;99.90
10149;DHT22;5115;50.920;6.376;2023-05-07T15:49:19;21.70;99.90
10149;DHT22;5115;50.920;6.376;2023-05-07T15:51:45;21.70;99.90
10149;DHT22;5115;50.920;6.376;2023-05-07T15:54:11;21.60;99.90
10149;DHT22;5115;50.920;6.376;2023-05-07T15:56:36;21.50;99.90
10149;DHT22;5115;50.920;6.376;2023-05-07T15:59:02;21.50;99.90
10149;DHT22;5115;50.920;6.376;2023-05-07T16:01:28;21.50;99.90